Terminal Aerodrome Forecast
Issued by NWS

Home | Current Version | Previous Version | Text Only | Print | Product List | Glossary Off
Versions: 1 2 3 4 5 6 7 8 9 10 11 12 13 14 15 16 17

059
FTUS43 KIWX 261727
TAFSBN
TAF
KSBN 261727Z 2618/2718 34010KT P6SM SCT008 BKN015
      TEMPO 2618/2622 BKN008
     FM262200 02012KT P6SM BKN015
     FM270400 06010KT P6SM SCT006 OVC010
     FM270900 08010KT 5SM BR OVC006
     FM271300 10014G20KT P6SM SCT030=

USA.gov is the U.S. government's official web portal to all federal, state and local government web resources and services.